Time;durP1;ratioP1;P1;durP2;ratioP2;P2;SDS_P1;SDS_P2;PMS_P1;PMS_P2;Temp;Humidity;BMP_temperature;BMP_pressure;BME280_temperature;BME280_humidity;BME280_pressure;Samples;Min_cycle;Max_cycle;Signal;HPM_P1;HPM_P2
2021/04/04 00:01:33;;;;;;;4.35;1.73;;;21.80;37.90;;;;;;5074989;28;20437;-58
2021/04/04 00:03:58;;;;;;;2.20;1.20;;;21.80;37.90;;;;;;5075034;28;20029;-59
2021/04/04 00:06:24;;;;;;;3.88;1.60;;;21.80;37.90;;;;;;5074773;28;20576;-56
2021/04/04 00:08:49;;;;;;;5.25;1.65;;;21.80;37.90;;;;;;5075102;28;20041;-55
2021/04/04 00:11:15;;;;;;;6.05;1.77;;;21.80;37.90;;;;;;5075064;28;20124;-57
2021/04/04 00:13:41;;;;;;;3.85;1.30;;;21.80;37.90;;;;;;5074821;28;20040;-58
2021/04/04 00:16:07;;;;;;;6.15;2.30;;;21.70;37.80;;;;;;5074926;28;20052;-58
2021/04/04 00:18:33;;;;;;;5.40;1.83;;;21.70;37.80;;;;;;5074976;28;20386;-56
2021/04/04 00:20:59;;;;;;;5.72;2.10;;;21.70;37.80;;;;;;5074951;28;20036;-58
2021/04/04 00:23:24;;;;;;;5.20;1.60;;;21.70;37.70;;;;;;5074995;28;20060;-56
2021/04/04 00:25:50;;;;;;;4.40;1.50;;;21.70;37.70;;;;;;5074854;28;20355;-59
2021/04/04 00:28:16;;;;;;;6.38;1.60;;;21.70;37.70;;;;;;5074979;28;20036;-58
2021/04/04 00:30:41;;;;;;;4.25;1.58;;;21.60;37.70;;;;;;5074700;28;20032;-58
2021/04/04 00:33:07;;;;;;;4.72;1.92;;;21.70;37.70;;;;;;5073957;28;20041;-57
2021/04/04 00:35:32;;;;;;;5.38;1.58;;;21.60;37.60;;;;;;5074424;28;20042;-58
2021/04/04 00:37:58;;;;;;;4.38;1.48;;;21.60;37.70;;;;;;5074766;28;20425;-56
2021/04/04 00:40:32;;;;;;;4.95;1.90;;;21.60;37.60;;;;;;5075101;28;20041;-55
2021/04/04 00:42:58;;;;;;;5.50;1.95;;;21.60;37.60;;;;;;5075161;28;20036;-58
2021/04/04 00:45:26;;;;;;;4.97;1.40;;;21.60;37.60;;;;;;5074705;28;20091;-54
2021/04/04 00:47:52;;;;;;;5.63;1.40;;;21.50;37.60;;;;;;5057213;28;20414;-57
2021/04/04 00:50:23;;;;;;;5.45;1.73;;;21.50;37.50;;;;;;5074705;28;20036;-54
2021/04/04 00:52:51;;;;;;;4.63;1.50;;;21.50;37.60;;;;;;5074411;28;20128;-56
2021/04/04 00:55:16;;;;;;;5.10;1.80;;;21.50;37.60;;;;;;5074706;28;20207;-56
2021/04/04 00:57:43;;;;;;;4.78;1.60;;;21.50;37.60;;;;;;5074344;28;20083;-54
2021/04/04 01:00:11;;;;;;;4.00;1.50;;;21.50;37.50;;;;;;5074648;28;20041;-57
2021/04/04 01:02:38;;;;;;;11.55;1.83;;;21.50;37.50;;;;;;5074603;28;20504;-56
2021/04/04 01:05:10;;;;;;;4.15;1.42;;;21.50;37.50;;;;;;5074833;28;20036;-59
2021/04/04 01:07:36;;;;;;;4.87;1.30;;;21.40;37.50;;;;;;5074199;28;20040;-58
2021/04/04 01:10:07;;;;;;;3.95;1.42;;;21.50;37.50;;;;;;5074365;28;20036;-57
2021/04/04 01:12:55;;;;;;;4.07;1.20;;;21.40;37.40;;;;;;5074545;28;20039;-53
2021/04/04 01:15:39;;;;;;;4.13;1.30;;;21.40;37.40;;;;;;5074450;28;20060;-54
2021/04/04 01:18:33;;;;;;;3.78;1.40;;;21.40;37.50;;;;;;5074504;28;20124;-57
2021/04/04 01:21:04;;;;;;;4.00;1.63;;;21.40;37.40;;;;;;5074629;28;20043;-58
2021/04/04 01:23:50;;;;;;;5.38;1.55;;;21.40;37.40;;;;;;5073908;28;20467;-57
2021/04/04 01:26:29;;;;;;;4.72;1.65;;;21.40;37.50;;;;;;5074161;28;20091;-55
2021/04/04 01:28:56;;;;;;;7.53;1.77;;;21.40;37.50;;;;;;5074535;28;20362;-59
2021/04/04 01:31:23;;;;;;;3.92;1.38;;;21.40;37.40;;;;;;5074221;28;20029;-56
2021/04/04 01:33:52;;;;;;;2.92;1.48;;;21.30;37.40;;;;;;5074081;28;20039;-57
2021/04/04 01:36:19;;;;;;;4.20;1.63;;;21.30;37.40;;;;;;5074392;28;20120;-58
2021/04/04 01:38:46;;;;;;;3.90;2.00;;;21.30;37.40;;;;;;5074780;28;20040;-57
2021/04/04 01:41:35;;;;;;;4.68;1.83;;;21.30;37.40;;;;;;5074066;28;20140;-59
2021/04/04 01:44:11;;;;;;;4.40;1.63;;;21.30;37.40;;;;;;5075116;28;20110;-59
2021/04/04 01:46:37;;;;;;;3.42;1.60;;;21.30;37.40;;;;;;5077900;28;20045;-57
2021/04/04 01:49:04;;;;;;;4.22;1.85;;;21.20;37.30;;;;;;5077824;28;20351;-59
2021/04/04 01:51:30;;;;;;;5.00;1.90;;;21.20;37.30;;;;;;5077987;28;20036;-56
2021/04/04 01:53:58;;;;;;;4.10;1.50;;;21.20;37.40;;;;;;5078100;28;20036;-57
2021/04/04 01:56:25;;;;;;;4.28;1.55;;;21.20;37.40;;;;;;5076642;28;20036;-59
2021/04/04 01:58:52;;;;;;;4.63;1.50;;;21.20;37.40;;;;;;5077076;28;20045;-56
2021/04/04 02:01:17;;;;;;;4.82;1.40;;;21.20;37.40;;;;;;5077201;28;20493;-56
2021/04/04 02:03:44;;;;;;;3.17;1.42;;;21.20;37.40;;;;;;5078019;28;20040;-57
2021/04/04 02:06:15;;;;;;;3.40;1.42;;;21.20;38.10;;;;;;5077261;28;20037;-57
2021/04/04 02:08:42;;;;;;;5.78;1.90;;;21.20;37.40;;;;;;5076341;28;20036;-56
2021/04/04 02:11:10;;;;;;;4.20;1.70;;;21.20;37.40;;;;;;5077143;28;20119;-56
2021/04/04 02:13:37;;;;;;;5.45;1.60;;;21.20;37.40;;;;;;5076765;28;20450;-57
2021/04/04 02:16:04;;;;;;;2.55;1.30;;;21.20;37.40;;;;;;5077012;28;20431;-59
2021/04/04 02:18:30;;;;;;;4.13;1.40;;;21.20;37.40;;;;;;5077189;28;20036;-58
2021/04/04 02:20:59;;;;;;;3.75;1.27;;;21.10;37.30;;;;;;5077329;28;20033;-55
2021/04/04 02:23:25;;;;;;;5.18;1.33;;;21.20;37.40;;;;;;5077411;28;20025;-55
2021/04/04 02:25:58;;;;;;;5.82;1.63;;;21.10;37.30;;;;;;5076965;28;20028;-56
2021/04/04 02:28:25;;;;;;;4.70;1.50;;;21.10;37.30;;;;;;5059614;28;20362;-54
2021/04/04 02:30:52;;;;;;;4.55;1.58;;;21.10;37.30;;;;;;5077078;28;20094;-57
2021/04/04 02:33:31;;;;;;;4.50;1.58;;;21.10;37.30;;;;;;5077118;28;20029;-59
2021/04/04 02:36:03;;;;;;;4.03;1.60;;;21.10;37.30;;;;;;5076688;28;20514;-55
2021/04/04 02:38:33;;;;;;;4.20;1.77;;;21.10;37.40;;;;;;5076463;28;20040;-58
2021/04/04 02:41:02;;;;;;;3.72;1.15;;;21.10;37.40;;;;;;5076915;28;20028;-56
2021/04/04 02:43:29;;;;;;;2.60;1.40;;;21.10;37.40;;;;;;5074181;28;20036;-58
2021/04/04 02:45:57;;;;;;;2.40;1.10;;;21.10;37.40;;;;;;5069335;28;20082;-55
2021/04/04 02:48:39;;;;;;;4.32;1.55;;;21.00;38.00;;;;;;5070728;28;20055;-59
2021/04/04 02:51:07;;;;;;;4.65;1.48;;;21.00;37.40;;;;;;5071913;28;20455;-55
2021/04/04 02:53:44;;;;;;;4.32;1.38;;;21.00;37.30;;;;;;5071018;28;20423;-51
2021/04/04 02:56:13;;;;;;;3.50;1.50;;;21.00;37.40;;;;;;5068503;28;20092;-57
2021/04/04 02:58:39;;;;;;;4.13;1.73;;;21.00;37.30;;;;;;5073286;28;20055;-58
2021/04/04 03:01:07;;;;;;;4.00;1.40;;;21.00;37.30;;;;;;5072704;28;20037;-57
2021/04/04 03:03:36;;;;;;;5.07;1.38;;;21.00;38.00;;;;;;5072004;28;20064;-54
2021/04/04 03:06:04;;;;;;;5.47;2.05;;;21.00;37.40;;;;;;5071311;28;20040;-57
2021/04/04 03:08:30;;;;;;;4.72;1.40;;;20.90;37.30;;;;;;5072588;28;20036;-57
2021/04/04 03:10:58;;;;;;;4.10;1.42;;;21.00;37.40;;;;;;5076111;28;20035;-58
2021/04/04 03:13:24;;;;;;;4.40;1.27;;;20.90;37.30;;;;;;5076408;28;20116;-54
2021/04/04 03:15:51;;;;;;;5.30;1.52;;;20.90;37.30;;;;;;5075790;28;20489;-59
2021/04/04 03:18:18;;;;;;;3.15;1.23;;;20.90;37.40;;;;;;5076179;28;20847;-56
2021/04/04 03:20:45;;;;;;;4.53;1.88;;;20.90;37.40;;;;;;5076171;28;20102;-57
2021/04/04 03:23:17;;;;;;;2.47;1.13;;;20.90;37.40;;;;;;5076047;28;20474;-58
2021/04/04 03:25:44;;;;;;;5.07;1.70;;;20.90;37.40;;;;;;5076021;28;20025;-55
2021/04/04 03:28:12;;;;;;;3.35;1.50;;;20.90;37.40;;;;;;5075960;28;20079;-55
2021/04/04 03:30:43;;;;;;;3.33;1.25;;;20.90;37.40;;;;;;5075671;28;20032;-57
2021/04/04 03:33:13;;;;;;;3.95;1.42;;;20.90;37.40;;;;;;5075593;28;20095;-56
2021/04/04 03:35:40;;;;;;;2.42;1.00;;;20.90;37.40;;;;;;5075793;28;20029;-55
2021/04/04 03:38:08;;;;;;;3.13;1.45;;;20.80;37.40;;;;;;5076095;28;20048;-56
2021/04/04 03:40:33;;;;;;;2.88;1.08;;;20.90;37.40;;;;;;5057132;28;20443;-57
2021/04/04 03:43:05;;;;;;;2.80;1.10;;;20.80;37.40;;;;;;5075307;28;20116;-56
2021/04/04 03:45:31;;;;;;;3.60;1.30;;;20.80;37.40;;;;;;5075392;28;20032;-58
2021/04/04 03:47:58;;;;;;;3.78;1.65;;;20.80;37.40;;;;;;5075581;28;20054;-52
2021/04/04 03:50:24;;;;;;;2.47;1.05;;;20.80;37.40;;;;;;5075523;28;20029;-57
2021/04/04 03:52:50;;;;;;;2.67;1.08;;;20.90;37.40;;;;;;5075196;28;20037;-57
2021/04/04 03:55:23;;;;;;;5.82;1.83;;;20.80;37.40;;;;;;5075400;28;20029;-54
2021/04/04 03:57:50;;;;;;;3.88;1.25;;;20.80;37.40;;;;;;5066974;28;20052;-54
2021/04/04 04:00:20;;;;;;;7.95;1.85;;;20.80;37.40;;;;;;5075433;28;20052;-54
2021/04/04 04:02:47;;;;;;;3.70;1.40;;;20.70;37.30;;;;;;5057493;28;20050;-57
2021/04/04 04:05:16;;;;;;;3.65;1.15;;;20.80;37.40;;;;;;5074957;28;20459;-58
2021/04/04 04:07:42;;;;;;;3.58;1.15;;;20.80;37.40;;;;;;5074395;28;20420;-55
2021/04/04 04:10:08;;;;;;;3.72;1.15;;;20.70;37.30;;;;;;5075279;28;20036;-53
2021/04/04 04:12:35;;;;;;;3.35;1.70;;;20.70;37.30;;;;;;5075177;28;20047;-56
2021/04/04 04:15:01;;;;;;;4.72;1.40;;;20.70;37.30;;;;;;5074906;28;20481;-58
2021/04/04 04:17:28;;;;;;;5.90;1.55;;;20.70;37.30;;;;;;5075137;28;20051;-58
2021/04/04 04:19:54;;;;;;;5.30;1.52;;;20.70;37.30;;;;;;5075191;28;20135;-52
2021/04/04 04:22:22;;;;;;;4.13;1.95;;;20.70;37.40;;;;;;5075261;28;20367;-51
2021/04/04 04:24:50;;;;;;;2.95;1.17;;;20.70;37.40;;;;;;5075054;28;20028;-55
2021/04/04 04:27:17;;;;;;;5.25;1.17;;;20.70;37.40;;;;;;5074879;28;20036;-55
2021/04/04 04:29:46;;;;;;;3.45;1.23;;;20.70;37.40;;;;;;5072790;28;20040;-54
2021/04/04 04:32:14;;;;;;;3.35;1.40;;;20.70;37.40;;;;;;5074892;28;20133;-52
2021/04/04 04:34:41;;;;;;;2.22;0.93;;;20.70;37.50;;;;;;5075042;28;20439;-53
2021/04/04 04:37:08;;;;;;;3.03;0.93;;;20.70;37.50;;;;;;5075275;28;20037;-53
2021/04/04 04:39:36;;;;;;;3.22;1.25;;;20.60;37.50;;;;;;5074243;28;20041;-54
2021/04/04 04:42:03;;;;;;;4.35;1.50;;;20.60;37.50;;;;;;5074865;28;20039;-56
2021/04/04 04:44:30;;;;;;;2.55;1.27;;;20.60;38.10;;;;;;5074852;28;20358;-53
2021/04/04 04:46:56;;;;;;;4.15;0.90;;;20.60;37.50;;;;;;5074831;28;20028;-57
2021/04/04 04:49:22;;;;;;;2.25;0.90;;;20.60;37.50;;;;;;5074550;28;20044;-54
2021/04/04 04:51:48;;;;;;;3.03;1.30;;;20.60;37.50;;;;;;5074857;28;20033;-56
2021/04/04 04:54:14;;;;;;;3.90;1.30;;;20.60;37.50;;;;;;5074510;28;20079;-53
2021/04/04 04:56:40;;;;;;;4.15;1.17;;;20.60;37.50;;;;;;5074801;28;20051;-53
2021/04/04 04:59:07;;;;;;;2.10;1.00;;;20.60;37.50;;;;;;5074589;28;20040;-56
2021/04/04 05:01:44;;;;;;;4.03;1.17;;;20.60;37.60;;;;;;5073577;28;20101;-55
2021/04/04 05:04:10;;;;;;;4.88;1.30;;;20.60;37.50;;;;;;5074396;28;20036;-53
2021/04/04 05:06:36;;;;;;;1.73;0.73;;;20.50;37.50;;;;;;5074278;28;20043;-55
2021/04/04 05:09:04;;;;;;;6.05;1.35;;;20.60;37.50;;;;;;5074381;28;20363;-55
2021/04/04 05:11:33;;;;;;;9.05;1.30;;;20.50;37.70;;;;;;5074090;28;20044;-60
2021/04/04 05:13:59;;;;;;;7.30;1.38;;;20.50;37.60;;;;;;5074040;28;20056;-59
